createdAt,value
2018-07-05T00:02:16.724Z,99.90
2018-07-05T00:04:56.587Z,99.90
2018-07-05T00:07:36.954Z,99.90
2018-07-05T00:10:16.572Z,99.90
2018-07-05T00:12:56.460Z,99.90
2018-07-05T00:15:37.064Z,99.90
2018-07-05T00:18:16.684Z,99.90
2018-07-05T00:20:56.618Z,99.90
2018-07-05T00:23:37.198Z,99.90
2018-07-05T00:26:17.066Z,99.90
2018-07-05T00:31:31.106Z,99.90
2018-07-05T00:34:10.726Z,99.90
2018-07-05T00:36:50.562Z,99.90
2018-07-05T00:39:30.678Z,99.90
2018-07-05T00:42:10.662Z,99.90
2018-07-05T00:44:50.732Z,99.90
2018-07-05T00:47:30.473Z,99.90
2018-07-05T00:50:10.206Z,99.90
2018-07-05T00:52:50.063Z,99.90
2018-07-05T00:55:29.699Z,99.90
2018-07-05T00:58:09.311Z,99.90
2018-07-05T01:00:49.162Z,99.90
2018-07-05T01:03:28.970Z,99.90
2018-07-05T01:06:08.745Z,99.90
2018-07-05T01:08:48.433Z,99.90
2018-07-05T01:11:28.157Z,99.90
2018-07-05T01:14:08.783Z,99.90
2018-07-05T01:16:48.361Z,99.90
2018-07-05T01:19:27.934Z,99.90
2018-07-05T01:22:07.530Z,99.90
2018-07-05T01:24:47.261Z,99.90
2018-07-05T01:27:27.124Z,99.90
2018-07-05T01:30:06.872Z,99.90
2018-07-05T01:32:46.750Z,99.90
2018-07-05T01:35:26.624Z,99.90
2018-07-05T01:38:06.262Z,99.90
2018-07-05T01:40:46.148Z,99.90
2018-07-05T01:43:25.826Z,99.90
2018-07-05T01:46:05.629Z,99.90
2018-07-05T01:48:45.196Z,99.90
2018-07-05T01:51:24.849Z,99.90
2018-07-05T01:54:04.578Z,99.90
2018-07-05T01:56:44.359Z,99.90
2018-07-05T01:59:23.928Z,99.90
2018-07-05T02:02:03.591Z,99.90
2018-07-05T02:04:44.264Z,99.90
2018-07-05T02:07:23.747Z,99.90
2018-07-05T02:10:03.539Z,99.90
2018-07-05T02:12:43.202Z,99.90
2018-07-05T02:15:22.926Z,99.90
2018-07-05T02:18:02.648Z,99.90
2018-07-05T02:20:42.282Z,99.90
2018-07-05T02:23:22.009Z,99.90
2018-07-05T02:26:02.039Z,99.90
2018-07-05T02:28:41.783Z,99.90
2018-07-05T02:31:21.532Z,99.90
2018-07-05T02:34:06.610Z,99.90
2018-07-05T02:36:46.529Z,99.90
2018-07-05T02:39:31.598Z,99.90
2018-07-05T02:42:11.305Z,99.90
2018-07-05T02:44:51.753Z,99.90
2018-07-05T02:47:31.544Z,99.90
2018-07-05T02:50:11.302Z,99.90
2018-07-05T02:52:51.212Z,99.90
2018-07-05T02:55:30.874Z,99.90
2018-07-05T02:58:10.498Z,99.90
2018-07-05T03:00:50.288Z,99.90
2018-07-05T03:03:30.084Z,99.90
2018-07-05T03:06:09.798Z,99.90
2018-07-05T03:08:49.632Z,99.90
2018-07-05T03:11:29.418Z,99.90
2018-07-05T03:14:09.506Z,99.90
2018-07-05T03:16:49.484Z,99.90
2018-07-05T03:19:29.302Z,99.90
2018-07-05T03:22:09.096Z,99.90
2018-07-05T03:24:48.725Z,99.90
2018-07-05T03:27:28.399Z,99.90
2018-07-05T03:30:09.114Z,99.90
2018-07-05T03:32:48.809Z,99.90
2018-07-05T03:35:28.603Z,99.90
2018-07-05T03:38:08.351Z,99.90
2018-07-05T03:40:48.093Z,99.90
2018-07-05T03:43:27.703Z,99.90
2018-07-05T03:46:07.383Z,99.90
2018-07-05T03:48:47.157Z,99.90
2018-07-05T03:51:27.057Z,99.90
2018-07-05T03:54:06.641Z,99.90
2018-07-05T03:56:46.648Z,99.90
2018-07-05T03:59:26.461Z,99.90
2018-07-05T04:02:06.333Z,99.90
2018-07-05T04:04:46.151Z,99.90
2018-07-05T04:07:25.947Z,99.90
2018-07-05T04:10:05.445Z,99.90
2018-07-05T04:12:45.285Z,99.90
2018-07-05T04:15:25.077Z,99.90
2018-07-05T04:18:04.774Z,99.90
2018-07-05T04:20:44.516Z,99.90
2018-07-05T04:23:24.202Z,99.90
2018-07-05T04:26:03.842Z,99.90
2018-07-05T04:28:43.623Z,99.90
2018-07-05T04:31:23.328Z,99.90
2018-07-05T04:34:03.297Z,99.90
2018-07-05T04:36:42.938Z,99.90
2018-07-05T04:39:22.668Z,99.90
2018-07-05T04:42:02.497Z,99.90
2018-07-05T04:44:42.410Z,99.90
2018-07-05T04:47:22.142Z,99.90
2018-07-05T04:50:01.978Z,99.90
2018-07-05T04:52:41.796Z,99.90
2018-07-05T04:55:21.762Z,99.90
2018-07-05T04:58:01.544Z,99.90
2018-07-05T05:00:41.343Z,99.90
2018-07-05T05:03:21.193Z,99.90
2018-07-05T05:06:01.115Z,99.90
2018-07-05T05:08:40.724Z,99.90
2018-07-05T05:11:20.545Z,99.90
2018-07-05T05:14:00.115Z,99.90
2018-07-05T05:16:39.948Z,99.90
2018-07-05T05:19:19.703Z,99.90
2018-07-05T05:21:59.316Z,99.90
2018-07-05T05:24:39.443Z,99.90
2018-07-05T05:27:19.163Z,99.90
2018-07-05T05:29:58.970Z,99.90
2018-07-05T05:32:38.816Z,99.90
2018-07-05T05:35:18.543Z,99.90
2018-07-05T05:37:58.278Z,99.90
2018-07-05T05:40:37.900Z,99.90
2018-07-05T05:43:17.550Z,99.90
2018-07-05T05:45:57.402Z,99.90
2018-07-05T05:48:37.130Z,99.90
2018-07-05T05:51:16.857Z,99.90
2018-07-05T05:53:56.647Z,99.90
2018-07-05T05:56:36.662Z,99.90
2018-07-05T05:59:16.442Z,99.90
2018-07-05T06:01:56.377Z,99.90
2018-07-05T06:04:35.984Z,99.90
2018-07-05T06:07:16.016Z,99.90
2018-07-05T06:09:55.836Z,99.90
2018-07-05T06:12:35.664Z,99.90
2018-07-05T06:15:15.552Z,99.90
2018-07-05T06:17:55.394Z,99.90
2018-07-05T06:20:35.427Z,99.90
2018-07-05T06:23:15.208Z,99.90
2018-07-05T06:25:54.828Z,99.90
2018-07-05T06:28:34.445Z,99.90
2018-07-05T06:31:14.244Z,99.90
2018-07-05T06:33:56.046Z,99.90
2018-07-05T06:36:35.670Z,99.90
2018-07-05T06:39:15.487Z,99.90
2018-07-05T06:41:55.468Z,99.90
2018-07-05T06:44:36.368Z,99.90
2018-07-05T06:47:16.092Z,99.90
2018-07-05T06:49:55.678Z,99.90
2018-07-05T06:52:35.341Z,99.90
2018-07-05T06:55:14.861Z,99.90
2018-07-05T06:57:54.757Z,99.90
2018-07-05T07:00:34.572Z,99.90
2018-07-05T07:03:14.422Z,99.90
2018-07-05T07:05:54.160Z,99.90
2018-07-05T07:08:33.788Z,99.90
2018-07-05T07:11:13.516Z,99.90
2018-07-05T07:13:53.220Z,99.90
2018-07-05T07:16:32.949Z,99.90
2018-07-05T07:19:12.562Z,99.90
2018-07-05T07:21:52.217Z,99.90
2018-07-05T07:24:32.051Z,99.90
2018-07-05T07:27:11.748Z,99.90
2018-07-05T07:29:51.500Z,99.90
2018-07-05T07:32:31.098Z,99.90
2018-07-05T07:35:10.865Z,99.90
2018-07-05T07:37:50.674Z,99.90
2018-07-05T07:40:30.351Z,99.90
2018-07-05T07:42:57.743Z,99.90
2018-07-05T07:47:54.756Z,99.90
2018-07-05T07:50:22.207Z,99.90
2018-07-05T07:52:49.594Z,99.90
2018-07-05T07:55:16.966Z,99.90
2018-07-05T07:57:44.385Z,99.90
2018-07-05T08:00:11.813Z,99.90
2018-07-05T08:02:39.221Z,99.90
2018-07-05T08:05:06.595Z,99.90
2018-07-05T08:07:34.045Z,99.90
2018-07-05T08:10:01.423Z,99.90
2018-07-05T08:12:28.806Z,99.90
2018-07-05T08:14:56.212Z,99.90
2018-07-05T08:17:23.577Z,99.90
2018-07-05T08:19:51.000Z,99.90
2018-07-05T08:22:18.632Z,99.90
2018-07-05T08:24:46.102Z,99.90
2018-07-05T08:27:13.505Z,99.90
2018-07-05T08:29:41.062Z,99.90
2018-07-05T08:32:08.650Z,99.90
2018-07-05T08:34:36.437Z,99.90
2018-07-05T08:37:03.830Z,99.90
2018-07-05T08:39:31.515Z,99.90
2018-07-05T08:41:59.026Z,99.90
2018-07-05T08:44:26.402Z,99.90
2018-07-05T08:46:54.066Z,99.90
2018-07-05T08:49:21.481Z,99.90
2018-07-05T08:51:49.062Z,99.90
2018-07-05T08:54:16.483Z,99.90
2018-07-05T08:56:43.927Z,99.90
2018-07-05T08:59:11.313Z,99.90
2018-07-05T09:01:38.718Z,99.90
2018-07-05T09:04:06.099Z,99.90
2018-07-05T09:06:33.473Z,99.90
2018-07-05T09:09:01.049Z,99.90
2018-07-05T09:11:28.444Z,99.90
2018-07-05T09:13:55.846Z,99.90
2018-07-05T09:16:23.420Z,99.90
2018-07-05T09:18:50.770Z,99.90
2018-07-05T09:21:18.216Z,99.90
2018-07-05T09:23:45.706Z,99.90
2018-07-05T09:26:13.059Z,99.90
2018-07-05T09:28:40.510Z,99.90
2018-07-05T09:31:07.885Z,99.90
2018-07-05T09:33:35.457Z,99.90
2018-07-05T09:36:02.935Z,99.90
2018-07-05T09:38:30.504Z,99.90
2018-07-05T09:40:57.923Z,99.90
2018-07-05T09:43:25.303Z,99.90
2018-07-05T09:45:52.689Z,99.90
2018-07-05T09:48:20.192Z,99.90
2018-07-05T09:50:47.661Z,99.90
2018-07-05T09:53:15.097Z,99.90
2018-07-05T09:55:42.501Z,99.90
2018-07-05T09:58:10.958Z,99.90
2018-07-05T10:00:43.511Z,99.90
2018-07-05T10:03:10.866Z,99.90
2018-07-05T10:05:38.250Z,99.90
2018-07-05T10:08:05.677Z,99.90
2018-07-05T10:10:33.078Z,95.70
2018-07-05T10:15:28.508Z,89.10
2018-07-05T10:17:55.914Z,90.40
2018-07-05T10:20:23.421Z,90.30
2018-07-05T10:22:50.826Z,83.40
2018-07-05T10:25:18.462Z,88.50
2018-07-05T10:27:45.921Z,89.30
2018-07-05T10:30:25.722Z,89.60
2018-07-05T10:33:05.501Z,87.30
2018-07-05T10:35:33.054Z,84.60
2018-07-05T10:38:01.679Z,76.90
2018-07-05T10:40:42.628Z,78.00
2018-07-05T10:43:22.348Z,75.50
2018-07-05T10:46:02.705Z,81.20
2018-07-05T10:48:42.354Z,77.10
2018-07-05T10:51:22.715Z,77.50
2018-07-05T10:54:02.975Z,77.50
2018-07-05T10:56:42.638Z,77.50
2018-07-05T10:59:22.283Z,77.50
2018-07-05T11:02:02.306Z,70.30
2018-07-05T11:04:41.959Z,66.60
2018-07-05T11:07:22.009Z,69.60
2018-07-05T11:10:02.382Z,67.10
2018-07-05T11:12:42.089Z,69.30
2018-07-05T11:15:21.814Z,70.90
2018-07-05T11:18:01.585Z,69.40
2018-07-05T11:20:41.324Z,71.70
2018-07-05T11:23:21.228Z,71.80
2018-07-05T11:26:00.745Z,72.90
2018-07-05T11:28:40.484Z,70.80
2018-07-05T11:31:20.287Z,71.80
2018-07-05T11:34:00.945Z,74.00
2018-07-05T11:36:40.891Z,75.30
2018-07-05T11:39:20.671Z,74.50
2018-07-05T11:42:00.604Z,75.50
2018-07-05T11:44:40.402Z,74.70
2018-07-05T11:47:20.502Z,73.80
2018-07-05T11:50:00.269Z,72.20
2018-07-05T11:52:39.906Z,73.20
2018-07-05T11:55:19.631Z,75.20
2018-07-05T11:57:59.508Z,72.60
2018-07-05T12:00:39.102Z,74.30
2018-07-05T12:03:18.819Z,72.70
2018-07-05T12:05:58.509Z,73.20
2018-07-05T12:08:38.336Z,71.90
2018-07-05T12:11:17.909Z,70.70
2018-07-05T12:13:57.967Z,67.00
2018-07-05T12:16:37.781Z,63.20
2018-07-05T12:19:17.605Z,69.90
2018-07-05T12:21:57.423Z,70.20
2018-07-05T12:24:37.082Z,65.40
2018-07-05T12:27:16.866Z,64.90
2018-07-05T12:29:56.654Z,70.10
2018-07-05T12:32:36.329Z,70.00
2018-07-05T12:35:16.011Z,66.30
2018-07-05T12:37:55.795Z,67.20
2018-07-05T12:40:35.365Z,65.50
2018-07-05T12:43:15.123Z,64.90
2018-07-05T12:45:54.873Z,65.10
2018-07-05T12:48:34.771Z,69.50
2018-07-05T12:51:14.672Z,65.40
2018-07-05T12:53:54.304Z,69.80
2018-07-05T12:56:34.027Z,66.20
2018-07-05T12:59:13.771Z,67.80
2018-07-05T13:01:53.474Z,72.10
2018-07-05T13:04:33.299Z,68.00
2018-07-05T13:07:13.033Z,70.70
2018-07-05T13:09:53.083Z,70.20
2018-07-05T13:12:32.840Z,72.20
2018-07-05T13:15:12.462Z,71.30
2018-07-05T13:17:52.311Z,73.50
2018-07-05T13:20:32.139Z,71.70
2018-07-05T13:23:11.869Z,72.00
2018-07-05T13:25:51.671Z,71.00
2018-07-05T13:28:31.528Z,67.70
2018-07-05T13:31:11.292Z,73.50
2018-07-05T13:33:51.037Z,75.70
2018-07-05T13:36:30.782Z,77.50
2018-07-05T13:39:10.652Z,77.90
2018-07-05T13:41:50.399Z,79.10
2018-07-05T13:44:30.203Z,79.40
2018-07-05T13:49:43.794Z,78.30
2018-07-05T13:52:23.734Z,78.60
2018-07-05T13:55:03.716Z,84.20
2018-07-05T13:57:43.199Z,83.00
2018-07-05T14:00:22.946Z,82.80
2018-07-05T14:03:02.736Z,84.50
2018-07-05T14:05:42.357Z,80.10
2018-07-05T14:08:22.051Z,81.30
2018-07-05T14:11:01.864Z,78.80
2018-07-05T14:13:42.542Z,80.50
2018-07-05T14:16:22.332Z,82.40
2018-07-05T14:19:02.090Z,80.70
2018-07-05T14:21:42.631Z,80.80
2018-07-05T14:24:22.269Z,77.70
2018-07-05T14:27:01.951Z,81.40
2018-07-05T14:29:42.306Z,81.20
2018-07-05T14:32:22.174Z,80.20
2018-07-05T14:35:01.986Z,80.10
2018-07-05T14:37:42.669Z,77.30
2018-07-05T14:40:23.081Z,79.70
2018-07-05T14:43:02.971Z,80.90
2018-07-05T14:45:42.817Z,82.60
2018-07-05T14:48:22.662Z,78.30
2018-07-05T14:51:02.419Z,79.80
2018-07-05T14:53:42.687Z,82.60
2018-07-05T14:56:23.029Z,79.50
2018-07-05T14:59:02.654Z,78.10
2018-07-05T15:04:16.682Z,76.10
2018-07-05T15:06:56.393Z,75.80
2018-07-05T15:09:35.987Z,77.40
2018-07-05T15:12:15.877Z,70.30
2018-07-05T15:14:55.811Z,72.90
2018-07-05T15:17:35.473Z,71.00
2018-07-05T15:20:15.247Z,74.30
2018-07-05T15:22:54.783Z,75.30
2018-07-05T15:25:34.388Z,73.90
2018-07-05T15:28:14.169Z,75.60
2018-07-05T15:30:53.774Z,77.00
2018-07-05T15:33:33.589Z,74.70
2018-07-05T15:36:13.230Z,76.00
2018-07-05T15:38:52.960Z,79.10
2018-07-05T15:41:32.654Z,81.50
2018-07-05T15:44:12.298Z,82.10
2018-07-05T15:46:51.915Z,82.70
2018-07-05T15:49:31.666Z,84.30
2018-07-05T15:52:11.406Z,86.90
2018-07-05T15:54:51.147Z,88.40
2018-07-05T15:57:30.931Z,88.60
2018-07-05T16:00:10.842Z,85.30
2018-07-05T16:02:50.498Z,87.10
2018-07-05T16:05:30.281Z,83.80
2018-07-05T16:08:09.982Z,86.30
2018-07-05T16:10:49.825Z,85.60
2018-07-05T16:13:29.474Z,88.10
2018-07-05T16:16:09.139Z,82.50
2018-07-05T16:18:48.802Z,86.30
2018-07-05T16:21:29.646Z,82.60
2018-07-05T16:24:10.007Z,83.50
2018-07-05T16:26:49.743Z,84.80
2018-07-05T16:29:29.758Z,86.10
2018-07-05T16:32:09.405Z,86.10
2018-07-05T16:34:49.028Z,85.20
2018-07-05T16:37:28.825Z,85.00
2018-07-05T16:40:08.464Z,85.80
2018-07-05T16:42:48.231Z,87.60
2018-07-05T16:45:28.011Z,87.10
2018-07-05T16:48:07.756Z,85.00
2018-07-05T16:50:47.705Z,87.80
2018-07-05T16:53:27.741Z,88.30
2018-07-05T16:56:07.495Z,90.00
2018-07-05T16:58:47.102Z,90.10
2018-07-05T17:01:26.819Z,89.60
2018-07-05T17:04:06.658Z,90.30
2018-07-05T17:06:46.314Z,88.60
2018-07-05T17:09:25.939Z,87.00
2018-07-05T17:12:05.634Z,85.00
2018-07-05T17:14:45.477Z,86.00
2018-07-05T17:17:25.227Z,88.20
2018-07-05T17:20:04.879Z,89.40
2018-07-05T17:22:44.533Z,90.40
2018-07-05T17:25:24.695Z,90.60
2018-07-05T17:28:04.614Z,91.30
2018-07-05T17:30:44.234Z,90.70
2018-07-05T17:33:23.908Z,90.90
2018-07-05T17:36:03.882Z,91.40
2018-07-05T17:38:43.594Z,90.90
2018-07-05T17:41:23.294Z,91.10
2018-07-05T17:44:03.087Z,92.00
2018-07-05T17:46:42.949Z,90.60
2018-07-05T17:49:22.656Z,91.80
2018-07-05T17:52:02.451Z,91.20
2018-07-05T17:54:42.143Z,90.90
2018-07-05T17:57:21.745Z,91.80
2018-07-05T18:00:02.806Z,92.60
2018-07-05T18:02:42.505Z,93.60
2018-07-05T18:05:22.257Z,92.00
2018-07-05T18:08:01.922Z,91.60
2018-07-05T18:10:41.514Z,91.80
2018-07-05T18:13:21.328Z,87.70
2018-07-05T18:16:01.230Z,89.40
2018-07-05T18:18:40.954Z,88.70
2018-07-05T18:21:20.905Z,88.20
2018-07-05T18:24:00.571Z,88.60
2018-07-05T18:26:40.379Z,89.60
2018-07-05T18:29:20.276Z,90.10
2018-07-05T18:31:59.961Z,90.50
2018-07-05T18:34:39.719Z,90.60
2018-07-05T18:37:19.392Z,91.50
2018-07-05T18:39:59.163Z,92.00
2018-07-05T18:42:38.989Z,93.30
2018-07-05T18:45:18.726Z,94.50
2018-07-05T18:47:58.547Z,95.40
2018-07-05T18:50:38.325Z,96.40
2018-07-05T18:53:18.174Z,96.90
2018-07-05T18:55:58.134Z,98.20
2018-07-05T18:58:37.928Z,99.40
2018-07-05T19:01:17.911Z,99.90
2018-07-05T19:03:57.614Z,99.90
2018-07-05T19:06:37.474Z,99.90
2018-07-05T19:09:17.276Z,99.90
2018-07-05T19:11:57.170Z,99.90
2018-07-05T19:14:36.723Z,99.90
2018-07-05T19:17:16.427Z,99.90
2018-07-05T19:19:56.223Z,99.90
2018-07-05T19:22:35.874Z,99.90
2018-07-05T19:27:49.727Z,99.90
2018-07-05T19:30:29.551Z,99.90
2018-07-05T19:33:09.250Z,99.90
2018-07-05T19:40:56.659Z,99.90
2018-07-05T19:43:36.427Z,99.90
2018-07-05T19:46:16.196Z,99.90
2018-07-05T19:48:55.946Z,99.90
2018-07-05T19:51:35.993Z,99.90
2018-07-05T19:54:15.755Z,99.90
2018-07-05T19:56:55.685Z,99.90
2018-07-05T19:59:35.496Z,99.90
2018-07-05T20:02:15.624Z,99.90
2018-07-05T20:04:55.578Z,99.90
2018-07-05T20:07:35.510Z,99.90
2018-07-05T20:10:15.223Z,99.90
2018-07-05T20:12:55.213Z,99.90
2018-07-05T20:15:34.994Z,99.90
2018-07-05T20:18:14.523Z,99.90
2018-07-05T20:20:54.454Z,99.90
2018-07-05T20:23:34.131Z,99.90
2018-07-05T20:26:13.953Z,99.90
2018-07-05T20:28:53.888Z,99.90
2018-07-05T20:31:34.449Z,99.90
2018-07-05T20:34:14.181Z,99.90
2018-07-05T20:36:53.933Z,99.90
2018-07-05T20:39:33.697Z,99.90
2018-07-05T20:42:13.485Z,99.90
2018-07-05T20:44:53.249Z,99.90
2018-07-05T20:47:33.148Z,99.90
2018-07-05T20:50:13.445Z,99.90
2018-07-05T20:52:53.112Z,99.90
2018-07-05T20:55:33.181Z,99.90
2018-07-05T20:58:12.989Z,99.90
2018-07-05T21:00:52.619Z,99.90
2018-07-05T21:03:32.274Z,99.90
2018-07-05T21:06:11.881Z,99.90
2018-07-05T21:08:51.598Z,99.90
2018-07-05T21:11:31.443Z,99.90
2018-07-05T21:14:11.104Z,99.90
2018-07-05T21:16:50.752Z,99.90
2018-07-05T21:19:30.672Z,99.90
2018-07-05T21:22:10.456Z,99.90
2018-07-05T21:24:50.265Z,99.90
2018-07-05T21:27:29.979Z,99.90
2018-07-05T21:30:09.711Z,99.90
2018-07-05T21:32:49.545Z,99.90
2018-07-05T21:35:29.415Z,99.90
2018-07-05T21:38:09.256Z,99.90
2018-07-05T21:40:49.008Z,99.90
2018-07-05T21:43:28.806Z,99.90
2018-07-05T21:46:08.659Z,99.90
2018-07-05T21:48:48.472Z,99.90
2018-07-05T21:51:28.242Z,99.90
2018-07-05T21:54:07.804Z,99.90
2018-07-05T21:56:47.571Z,99.90
2018-07-05T21:59:27.401Z,99.90
2018-07-05T22:02:07.216Z,99.90
2018-07-05T22:04:46.898Z,99.90
2018-07-05T22:07:26.567Z,99.90
2018-07-05T22:10:06.291Z,99.90
2018-07-05T22:12:46.103Z,99.90
2018-07-05T22:15:25.751Z,99.90
2018-07-05T22:18:10.875Z,99.90
2018-07-05T22:20:56.171Z,99.90
2018-07-05T22:23:41.295Z,99.90
2018-07-05T22:26:26.366Z,99.90
2018-07-05T22:29:11.358Z,99.90
2018-07-05T22:34:24.902Z,99.90
2018-07-05T22:37:04.554Z,99.90
2018-07-05T22:39:44.162Z,99.90
2018-07-05T22:42:24.149Z,99.90
2018-07-05T22:45:03.792Z,99.90
2018-07-05T22:47:43.400Z,99.90
2018-07-05T22:50:23.231Z,99.90
2018-07-05T22:53:03.386Z,99.90
2018-07-05T22:55:43.152Z,99.90
2018-07-05T22:58:22.889Z,99.90
2018-07-05T23:01:02.697Z,99.90
2018-07-05T23:03:42.349Z,99.90
2018-07-05T23:06:22.228Z,99.90
2018-07-05T23:11:36.133Z,99.90
2018-07-05T23:14:16.401Z,99.90
2018-07-05T23:16:56.491Z,99.90
2018-07-05T23:19:36.322Z,99.90
2018-07-05T23:22:15.997Z,99.90
2018-07-05T23:24:56.037Z,99.90
2018-07-05T23:27:35.963Z,99.90
2018-07-05T23:30:15.859Z,99.90
2018-07-05T23:32:55.685Z,99.90
2018-07-05T23:38:09.427Z,99.90
2018-07-05T23:40:49.044Z,99.90
2018-07-05T23:43:28.877Z,99.90
2018-07-05T23:46:08.828Z,99.90
2018-07-05T23:48:48.682Z,99.90
2018-07-05T23:51:29.032Z,99.90
2018-07-05T23:54:08.818Z,99.90
2018-07-05T23:56:49.020Z,99.90
2018-07-05T23:59:28.916Z,99.90
